Time;durP1;ratioP1;P1;durP2;ratioP2;P2;SDS_P1;SDS_P2;PMS_P1;PMS_P2;Temp;Humidity;BMP_temperature;BMP_pressure;BME280_temperature;BME280_humidity;BME280_pressure;Samples;Min_cycle;Max_cycle;Signal;HPM_P1;HPM_P2
2020/12/22 00:02:16;;;;;;;39.85;22.85;;;;;;;;;;5059062;28;20025;-55
2020/12/22 00:04:42;;;;;;;40.97;22.50;;;;;;;;;;5075195;28;20138;-56
2020/12/22 00:07:08;;;;;;;40.03;21.73;;;;;;;;;;5077473;28;20077;-55
2020/12/22 00:09:34;;;;;;;84.47;33.85;;;;;;;;;;5066798;28;20025;-57
2020/12/22 00:12:00;;;;;;;39.95;21.35;;;;;;;;;;5072868;28;20020;-55
2020/12/22 00:14:26;;;;;;;35.85;19.88;;;;;;;;;;5072721;28;20031;-55
2020/12/22 00:16:52;;;;;;;33.42;18.52;;;;;;;;;;5072205;28;20063;-53
2020/12/22 00:19:18;;;;;;;35.03;18.90;;;;;;;;;;5072277;28;20071;-56
2020/12/22 00:21:44;;;;;;;34.47;18.77;;;;;;;;;;5060887;28;20025;-54
2020/12/22 00:24:10;;;;;;;32.83;17.95;;;;;;;;;;5068082;28;20076;-55
2020/12/22 00:26:36;;;;;;;35.15;18.15;;;;;;;;;;5072624;28;20029;-55
2020/12/22 00:29:02;;;;;;;33.50;17.27;;;;;;;;;;5072567;28;20088;-55
2020/12/22 00:31:28;;;;;;;32.78;17.70;;;;;;;;;;5073296;28;20062;-55
2020/12/22 00:33:54;;;;;;;30.25;17.33;;;;;;;;;;5072672;28;20090;-53
2020/12/22 00:36:21;;;;;;;37.08;19.77;;;;;;;;;;5076230;28;20376;-55
2020/12/22 00:38:47;;;;;;;34.15;18.90;;;;;;;;;;5075984;28;20460;-56
2020/12/22 00:41:14;;;;;;;37.33;19.70;;;;;;;;;;5059638;28;20036;-56
2020/12/22 00:43:41;;;;;;;39.67;20.80;;;;;;;;;;5071985;28;20021;-54
2020/12/22 00:46:07;;;;;;;40.45;20.92;;;;;;;;;;5073017;28;20032;-56
2020/12/22 00:48:33;;;;;;;39.75;21.35;;;;;;;;;;5074496;28;20828;-53
2020/12/22 00:50:59;;;;;;;34.90;19.35;;;;;;;;;;5076191;28;20047;-55
2020/12/22 00:53:25;;;;;;;34.25;18.85;;;;;;;;;;5069864;28;20024;-55
2020/12/22 00:55:51;;;;;;;41.28;22.33;;;;;;;;;;5059038;28;20029;-57
2020/12/22 00:58:17;;;;;;;36.40;20.08;;;;;;;;;;5067404;28;20127;-54
2020/12/22 01:00:43;;;;;;;39.15;20.55;;;;;;;;;;5054078;28;20102;-56
2020/12/22 01:03:09;;;;;;;41.17;21.98;;;;;;;;;;5057773;28;20028;-54
2020/12/22 01:05:35;;;;;;;31.63;18.77;;;;;;;;;;5049674;28;20037;-55
2020/12/22 01:08:01;;;;;;;34.30;18.40;;;;;;;;;;5054992;28;20020;-55
2020/12/22 01:10:27;;;;;;;32.85;18.45;;;;;;;;;;5052443;28;20028;-54
2020/12/22 01:12:53;;;;;;;33.35;18.63;;;;;;;;;;5052869;28;20021;-54
2020/12/22 01:15:20;;;;;;;31.98;18.08;;;;;;;;;;5051677;28;20469;-54
2020/12/22 01:17:46;;;;;;;37.05;20.42;;;;;;;;;;5060128;28;20028;-54
2020/12/22 01:20:12;;;;;;;38.35;20.27;;;;;;;;;;5066742;28;20036;-54
2020/12/22 01:22:38;;;;;;;38.85;20.92;;;;;;;;;;5062270;28;20021;-55
2020/12/22 01:25:04;;;;;;;36.70;19.63;;;;;;;;;;5065529;28;20051;-56
2020/12/22 01:27:30;;;;;;;35.97;19.48;;;;;;;;;;5052402;28;20052;-55
2020/12/22 01:29:56;;;;;;;33.25;18.75;;;;;;;;;;5054086;28;20028;-55
2020/12/22 01:32:22;;;;;;;37.63;19.98;;;;;;;;;;5067000;28;20031;-55
2020/12/22 01:34:48;;;;;;;38.83;20.15;;;;;;;;;;5062248;28;20025;-56
2020/12/22 01:37:15;;;;;;;37.08;19.75;;;;;;;;;;5060622;28;20439;-57
2020/12/22 01:39:41;;;;;;;33.97;18.25;;;;;;;;;;5067004;28;20039;-55
2020/12/22 01:42:10;;;;;;;32.40;17.85;;;;;;;;;;5071155;28;20557;-56
2020/12/22 01:44:36;;;;;;;34.08;18.58;;;;;;;;;;5073511;28;20029;-53
2020/12/22 01:47:02;;;;;;;36.83;19.25;;;;;;;;;;5071480;28;20388;-53
2020/12/22 01:49:28;;;;;;;35.00;18.40;;;;;;;;;;5077633;28;20032;-56
2020/12/22 01:51:55;;;;;;;63.15;30.98;;;;;;;;;;5075357;28;20467;-54
2020/12/22 01:54:22;;;;;;;40.20;22.17;;;;;;;;;;5077425;28;20116;-54
2020/12/22 01:56:48;;;;;;;34.17;18.08;;;;;;;;;;5075467;28;20099;-56
2020/12/22 01:59:14;;;;;;;33.00;19.13;;;;;;;;;;5075281;28;20032;-54
2020/12/22 02:01:41;;;;;;;35.00;19.10;;;;;;;;;;5075418;28;20024;-56
2020/12/22 02:04:08;;;;;;;35.88;19.92;;;;;;;;;;5074925;28;20033;-56
2020/12/22 02:06:34;;;;;;;34.58;18.00;;;;;;;;;;5075115;28;20498;-56
2020/12/22 02:09:01;;;;;;;31.40;17.63;;;;;;;;;;5075134;28;20029;-55
2020/12/22 02:11:28;;;;;;;34.72;18.98;;;;;;;;;;5075257;28;20104;-56
2020/12/22 02:13:55;;;;;;;38.53;19.38;;;;;;;;;;5072975;28;22436;-55
2020/12/22 02:16:21;;;;;;;33.80;19.00;;;;;;;;;;5054747;28;20087;-56
2020/12/22 02:18:47;;;;;;;36.58;18.52;;;;;;;;;;5080377;28;20436;-56
2020/12/22 02:21:13;;;;;;;32.38;18.70;;;;;;;;;;5062101;28;20937;-55
2020/12/22 02:23:40;;;;;;;32.22;18.40;;;;;;;;;;5064995;28;20097;-55
2020/12/22 02:26:06;;;;;;;34.88;19.23;;;;;;;;;;5074806;28;20032;-56
2020/12/22 02:28:33;;;;;;;36.33;18.60;;;;;;;;;;5074738;28;20043;-55
2020/12/22 02:31:03;;;;;;;35.88;19.30;;;;;;;;;;5070971;28;20032;-56
2020/12/22 02:33:29;;;;;;;36.35;20.92;;;;;;;;;;5068043;28;20032;-53
2020/12/22 02:35:56;;;;;;;40.78;21.85;;;;;;;;;;5059024;28;20025;-56
2020/12/22 02:38:22;;;;;;;40.22;22.08;;;;;;;;;;5056124;28;20027;-54
2020/12/22 02:40:48;;;;;;;35.33;18.55;;;;;;;;;;5055509;28;20033;-53
2020/12/22 02:43:15;;;;;;;34.17;18.92;;;;;;;;;;5056235;28;20595;-56
2020/12/22 02:45:42;;;;;;;31.23;17.33;;;;;;;;;;5066206;28;20029;-52
2020/12/22 02:48:12;;;;;;;32.97;18.67;;;;;;;;;;5074621;28;20074;-52
2020/12/22 02:50:38;;;;;;;36.10;20.23;;;;;;;;;;5060367;28;20025;-52
2020/12/22 02:53:05;;;;;;;35.97;19.17;;;;;;;;;;5057495;28;20032;-55
2020/12/22 02:55:31;;;;;;;39.67;21.88;;;;;;;;;;5054801;28;20099;-55
2020/12/22 02:57:57;;;;;;;49.67;26.92;;;;;;;;;;5055408;28;20029;-55
2020/12/22 03:00:23;;;;;;;41.47;21.77;;;;;;;;;;5056197;28;20039;-55
2020/12/22 03:02:49;;;;;;;35.65;20.05;;;;;;;;;;5053926;28;20504;-55
2020/12/22 03:05:16;;;;;;;42.80;22.40;;;;;;;;;;5072701;28;20067;-55
2020/12/22 03:07:42;;;;;;;38.85;21.77;;;;;;;;;;5067989;28;20025;-56
2020/12/22 03:10:09;;;;;;;42.92;23.88;;;;;;;;;;5055268;28;20116;-54
2020/12/22 03:12:35;;;;;;;38.10;20.10;;;;;;;;;;5055337;28;20381;-55
2020/12/22 03:15:02;;;;;;;49.58;25.73;;;;;;;;;;5056655;28;20090;-54
2020/12/22 03:17:28;;;;;;;46.97;26.30;;;;;;;;;;5060147;28;20034;-55
2020/12/22 03:19:54;;;;;;;48.78;24.67;;;;;;;;;;5056396;28;20029;-53
2020/12/22 03:22:20;;;;;;;39.53;21.35;;;;;;;;;;5056252;28;20024;-53
2020/12/22 03:24:46;;;;;;;42.95;23.77;;;;;;;;;;5055421;28;20132;-56
2020/12/22 03:27:12;;;;;;;58.55;35.67;;;;;;;;;;5057182;28;20376;-54
2020/12/22 03:29:38;;;;;;;43.28;21.15;;;;;;;;;;5055150;28;20338;-54
2020/12/22 03:32:04;;;;;;;42.00;21.75;;;;;;;;;;5056167;28;20025;-53
2020/12/22 03:34:30;;;;;;;35.42;19.83;;;;;;;;;;5054422;28;20095;-54
2020/12/22 03:36:56;;;;;;;38.97;21.40;;;;;;;;;;5053827;28;20024;-54
2020/12/22 03:39:22;;;;;;;41.88;23.38;;;;;;;;;;5053633;28;20020;-54
2020/12/22 03:41:48;;;;;;;41.03;23.02;;;;;;;;;;5052950;28;20044;-55
2020/12/22 03:44:14;;;;;;;41.05;22.48;;;;;;;;;;5070219;28;20021;-55
2020/12/22 03:46:41;;;;;;;43.13;21.60;;;;;;;;;;5068014;28;20033;-55
2020/12/22 03:49:07;;;;;;;41.63;21.48;;;;;;;;;;5057723;28;20392;-54
2020/12/22 03:51:33;;;;;;;40.53;20.67;;;;;;;;;;5055693;28;20090;-56
2020/12/22 03:53:59;;;;;;;38.50;20.13;;;;;;;;;;5060314;28;20036;-53
2020/12/22 03:56:26;;;;;;;36.65;19.27;;;;;;;;;;5060015;28;20383;-56
2020/12/22 03:58:52;;;;;;;36.92;20.15;;;;;;;;;;5073169;28;20028;-56
2020/12/22 04:01:18;;;;;;;36.33;19.15;;;;;;;;;;5072814;28;20488;-55
2020/12/22 04:03:44;;;;;;;38.72;19.23;;;;;;;;;;5077337;28;20103;-55
2020/12/22 04:06:10;;;;;;;39.63;20.00;;;;;;;;;;5072732;28;20082;-55
2020/12/22 04:08:36;;;;;;;38.08;19.85;;;;;;;;;;5072859;28;20012;-56
2020/12/22 04:11:02;;;;;;;37.20;19.77;;;;;;;;;;5072835;28;20426;-55
2020/12/22 04:13:28;;;;;;;38.00;19.98;;;;;;;;;;5071650;28;20082;-55
2020/12/22 04:15:55;;;;;;;38.58;20.15;;;;;;;;;;5072137;28;20021;-56
2020/12/22 04:18:21;;;;;;;37.42;19.98;;;;;;;;;;5072291;28;20028;-56
2020/12/22 04:20:47;;;;;;;37.22;18.95;;;;;;;;;;5072274;28;20043;-55
2020/12/22 04:23:13;;;;;;;36.83;20.30;;;;;;;;;;5060300;28;20112;-55
2020/12/22 04:25:39;;;;;;;36.42;19.65;;;;;;;;;;5070572;28;20032;-56
2020/12/22 04:28:05;;;;;;;36.78;19.88;;;;;;;;;;5072630;28;20069;-55
2020/12/22 04:30:32;;;;;;;37.35;19.13;;;;;;;;;;5072340;28;20027;-55
2020/12/22 04:32:58;;;;;;;38.13;20.75;;;;;;;;;;5072293;28;20028;-55
2020/12/22 04:35:24;;;;;;;38.47;19.65;;;;;;;;;;5072958;28;20150;-55
2020/12/22 04:37:50;;;;;;;38.75;20.27;;;;;;;;;;5072553;28;20051;-55
2020/12/22 04:40:16;;;;;;;37.97;19.83;;;;;;;;;;5072437;28;20029;-55
2020/12/22 04:42:43;;;;;;;39.47;19.83;;;;;;;;;;5074457;28;20032;-56
2020/12/22 04:45:09;;;;;;;37.42;19.00;;;;;;;;;;5077024;28;20483;-56
2020/12/22 04:47:38;;;;;;;39.00;19.90;;;;;;;;;;5075738;28;20036;-55
2020/12/22 04:50:04;;;;;;;37.60;18.58;;;;;;;;;;5075060;28;20105;-55
2020/12/22 04:52:32;;;;;;;35.50;19.15;;;;;;;;;;5072151;28;20040;-55
2020/12/22 04:54:58;;;;;;;38.13;19.90;;;;;;;;;;5072117;28;20519;-56
2020/12/22 04:57:31;;;;;;;39.13;18.70;;;;;;;;;;5072340;28;20591;-55
2020/12/22 04:59:57;;;;;;;38.55;19.52;;;;;;;;;;5071997;28;20037;-56
2020/12/22 05:02:25;;;;;;;35.08;19.20;;;;;;;;;;5072349;28;20025;-56
2020/12/22 05:04:51;;;;;;;35.42;19.27;;;;;;;;;;5071753;28;20029;-55
2020/12/22 05:07:17;;;;;;;37.20;18.90;;;;;;;;;;5081174;28;20106;-55
2020/12/22 05:09:44;;;;;;;36.90;18.83;;;;;;;;;;5075325;28;20036;-55
2020/12/22 05:12:10;;;;;;;42.28;20.60;;;;;;;;;;5072296;28;20024;-56
2020/12/22 05:14:36;;;;;;;39.15;20.55;;;;;;;;;;5071689;28;20025;-56
2020/12/22 05:17:02;;;;;;;42.38;21.63;;;;;;;;;;5071694;28;20094;-56
2020/12/22 05:19:35;;;;;;;43.45;21.70;;;;;;;;;;5071659;28;20112;-56
2020/12/22 05:22:02;;;;;;;46.25;24.10;;;;;;;;;;5071494;28;20467;-56
2020/12/22 05:24:29;;;;;;;58.05;30.88;;;;;;;;;;5072681;28;20523;-55
2020/12/22 05:26:55;;;;;;;83.88;41.10;;;;;;;;;;5063634;28;20017;-53
2020/12/22 05:29:25;;;;;;;67.88;37.45;;;;;;;;;;5063688;28;20024;-56
2020/12/22 05:31:52;;;;;;;79.63;41.88;;;;;;;;;;5075736;28;20047;-56
2020/12/22 05:34:18;;;;;;;80.28;40.85;;;;;;;;;;5075810;28;20016;-55
2020/12/22 05:36:45;;;;;;;100.65;51.75;;;;;;;;;;5075615;28;20028;-54
2020/12/22 05:39:29;;;;;;;81.00;44.80;;;;;;;;;;5076904;28;20054;-55
2020/12/22 05:41:55;;;;;;;89.65;49.20;;;;;;;;;;5074138;28;20121;-55
2020/12/22 05:44:24;;;;;;;89.68;49.20;;;;;;;;;;5071651;28;20025;-56
2020/12/22 05:46:51;;;;;;;96.70;50.45;;;;;;;;;;5067594;28;20020;-56
2020/12/22 05:49:17;;;;;;;98.03;48.13;;;;;;;;;;5075012;28;20033;-54
2020/12/22 05:51:44;;;;;;;93.40;47.92;;;;;;;;;;5075592;28;20035;-55
2020/12/22 05:54:14;;;;;;;101.55;53.17;;;;;;;;;;5075283;28;20060;-56
2020/12/22 05:56:40;;;;;;;82.35;43.60;;;;;;;;;;5076000;28;20021;-54
2020/12/22 05:59:16;;;;;;;77.32;41.33;;;;;;;;;;5075510;28;20066;-56
2020/12/22 06:01:42;;;;;;;129.23;71.75;;;;;;;;;;5062168;28;20138;-55
2020/12/22 06:04:09;;;;;;;97.15;54.58;;;;;;;;;;5082694;28;20021;-55
2020/12/22 06:06:36;;;;;;;95.65;50.17;;;;;;;;;;5075794;28;20029;-57
2020/12/22 06:09:03;;;;;;;85.55;45.08;;;;;;;;;;5075271;28;20476;-56
2020/12/22 06:11:29;;;;;;;112.38;58.50;;;;;;;;;;5075106;28;20031;-55
2020/12/22 06:13:57;;;;;;;112.35;59.80;;;;;;;;;;5075279;28;20468;-56
2020/12/22 06:16:24;;;;;;;113.80;58.67;;;;;;;;;;5074870;28;20491;-56
2020/12/22 06:18:51;;;;;;;116.85;61.55;;;;;;;;;;5075138;28;20063;-56
2020/12/22 06:21:18;;;;;;;137.90;72.03;;;;;;;;;;5056955;28;20407;-56
2020/12/22 06:23:46;;;;;;;174.23;94.18;;;;;;;;;;5074548;28;20091;-56
2020/12/22 06:26:12;;;;;;;198.35;103.40;;;;;;;;;;5075065;28;20066;-53
2020/12/22 06:28:38;;;;;;;170.15;90.32;;;;;;;;;;5074832;28;20055;-55
2020/12/22 06:31:16;;;;;;;149.63;77.55;;;;;;;;;;5074931;28;20524;-54
2020/12/22 06:33:42;;;;;;;201.75;106.28;;;;;;;;;;5075041;28;20494;-52
2020/12/22 06:36:10;;;;;;;150.77;82.05;;;;;;;;;;5073443;28;20016;-54
2020/12/22 06:38:55;;;;;;;147.23;83.60;;;;;;;;;;5074941;28;20025;-54
2020/12/22 06:41:37;;;;;;;152.95;84.70;;;;;;;;;;5061844;28;20362;-52
2020/12/22 06:44:16;;;;;;;141.20;78.03;;;;;;;;;;5074710;28;20051;-53
2020/12/22 06:46:43;;;;;;;152.27;82.43;;;;;;;;;;5074547;28;20031;-55
2020/12/22 06:49:10;;;;;;;144.93;78.15;;;;;;;;;;5074648;28;20024;-56
2020/12/22 06:51:37;;;;;;;166.13;93.18;;;;;;;;;;5074355;28;20059;-56
2020/12/22 06:54:12;;;;;;;185.55;100.47;;;;;;;;;;5074478;28;20032;-55
2020/12/22 06:56:42;;;;;;;179.75;94.30;;;;;;;;;;5061581;28;20103;-56
2020/12/22 06:59:10;;;;;;;192.57;102.00;;;;;;;;;;5074418;28;20032;-56
2020/12/22 07:01:38;;;;;;;158.50;84.75;;;;;;;;;;5060425;28;20032;-55
2020/12/22 07:04:14;;;;;;;258.27;119.95;;;;;;;;;;5074359;28;20025;-56
2020/12/22 07:06:59;;;;;;;303.50;154.48;;;;;;;;;;5074081;28;20044;-55
2020/12/22 07:09:29;;;;;;;169.27;92.07;;;;;;;;;;5074160;28;20028;-56
2020/12/22 07:12:08;;;;;;;156.95;86.88;;;;;;;;;;5074141;28;20768;-56
2020/12/22 07:14:34;;;;;;;154.80;85.43;;;;;;;;;;5073861;28;20028;-55
2020/12/22 07:17:01;;;;;;;137.80;75.82;;;;;;;;;;5074085;28;20020;-56
2020/12/22 07:19:28;;;;;;;117.00;63.13;;;;;;;;;;5073804;28;20161;-56
2020/12/22 07:21:55;;;;;;;116.78;65.30;;;;;;;;;;5072611;28;20100;-55
2020/12/22 07:24:21;;;;;;;110.45;61.00;;;;;;;;;;5060743;28;20049;-57
2020/12/22 07:26:47;;;;;;;118.00;66.93;;;;;;;;;;5073833;28;20047;-56
2020/12/22 07:29:13;;;;;;;124.75;67.85;;;;;;;;;;5073723;28;20288;-56
2020/12/22 07:31:41;;;;;;;136.38;70.97;;;;;;;;;;5074140;28;20020;-55
2020/12/22 07:34:07;;;;;;;164.85;94.35;;;;;;;;;;5073891;28;20107;-56
2020/12/22 07:36:34;;;;;;;184.55;106.03;;;;;;;;;;5055185;28;20415;-56
2020/12/22 07:39:13;;;;;;;198.93;115.88;;;;;;;;;;5073501;28;20061;-55
2020/12/22 07:41:40;;;;;;;200.90;116.20;;;;;;;;;;5073309;28;20037;-55
2020/12/22 07:44:10;;;;;;;178.85;104.38;;;;;;;;;;5073208;28;20060;-55
2020/12/22 07:46:36;;;;;;;127.93;70.93;;;;;;;;;;5071663;28;20028;-56
2020/12/22 07:49:06;;;;;;;75.47;38.92;;;;;;;;;;5072258;28;20073;-55
2020/12/22 07:51:32;;;;;;;69.57;36.08;;;;;;;;;;5073124;28;20024;-56
2020/12/22 07:54:05;;;;;;;71.93;33.53;;;;;;;;;;5073340;28;20033;-57
2020/12/22 07:56:32;;;;;;;78.70;35.67;;;;;;;;;;5060583;28;20415;-56
2020/12/22 07:59:01;;;;;;;78.22;36.90;;;;;;;;;;5071949;28;20024;-57
2020/12/22 08:01:29;;;;;;;95.60;41.42;;;;;;;;;;5073382;28;20079;-55
2020/12/22 08:03:55;;;;;;;84.88;37.42;;;;;;;;;;5069604;28;20021;-57
2020/12/22 08:06:22;;;;;;;60.67;30.90;;;;;;;;;;5062532;28;20480;-56
2020/12/22 08:08:58;;;;;;;60.47;31.95;;;;;;;;;;5072878;28;20020;-56
2020/12/22 08:11:24;;;;;;;80.57;36.38;;;;;;;;;;5073041;28;20023;-55
2020/12/22 08:13:51;;;;;;;67.35;31.77;;;;;;;;;;5072970;28;20347;-56
2020/12/22 08:16:17;;;;;;;63.03;33.90;;;;;;;;;;5072769;28;20025;-56
2020/12/22 08:18:43;;;;;;;71.82;36.20;;;;;;;;;;5072896;28;20029;-55
2020/12/22 08:21:11;;;;;;;82.68;39.03;;;;;;;;;;5068072;28;20107;-55
2020/12/22 08:23:38;;;;;;;90.55;43.13;;;;;;;;;;5063467;28;20071;-56
2020/12/22 08:26:05;;;;;;;81.18;38.85;;;;;;;;;;5072619;28;20070;-56
2020/12/22 08:28:31;;;;;;;68.88;34.15;;;;;;;;;;5072590;28;20028;-55
2020/12/22 08:31:15;;;;;;;74.50;37.35;;;;;;;;;;5072735;28;20020;-55
2020/12/22 08:33:41;;;;;;;66.32;33.65;;;;;;;;;;5072741;28;20037;-56
2020/12/22 08:36:11;;;;;;;90.95;44.13;;;;;;;;;;5072411;28;20086;-56
2020/12/22 08:38:37;;;;;;;85.55;41.55;;;;;;;;;;5072532;28;20111;-56
2020/12/22 08:41:16;;;;;;;69.15;35.95;;;;;;;;;;5072112;28;20032;-55
2020/12/22 08:43:50;;;;;;;72.55;39.28;;;;;;;;;;5071971;28;20029;-56
2020/12/22 08:46:16;;;;;;;77.63;41.90;;;;;;;;;;5072411;28;20387;-56
2020/12/22 08:48:43;;;;;;;67.05;37.90;;;;;;;;;;5072286;28;20091;-56
2020/12/22 08:51:09;;;;;;;61.00;30.50;;;;;;;;;;5072833;28;20031;-56
2020/12/22 08:53:36;;;;;;;59.05;31.88;;;;;;;;;;5072207;28;20040;-55
2020/12/22 08:56:05;;;;;;;57.95;30.40;;;;;;;;;;5060946;28;20048;-56
2020/12/22 08:58:31;;;;;;;53.47;27.67;;;;;;;;;;5068905;28;20020;-55
2020/12/22 09:00:57;;;;;;;58.30;33.67;;;;;;;;;;5072267;28;20071;-55
2020/12/22 09:03:23;;;;;;;59.67;34.33;;;;;;;;;;5072174;28;20107;-56
2020/12/22 09:05:52;;;;;;;55.88;29.80;;;;;;;;;;5072371;28;20104;-56
2020/12/22 09:08:18;;;;;;;50.47;27.67;;;;;;;;;;5072427;28;20017;-56
2020/12/22 09:10:48;;;;;;;55.38;30.15;;;;;;;;;;5072040;28;20020;-55
2020/12/22 09:13:17;;;;;;;53.67;29.88;;;;;;;;;;5072129;28;20108;-56
2020/12/22 09:15:53;;;;;;;51.63;26.15;;;;;;;;;;5072067;28;20029;-57
2020/12/22 09:18:19;;;;;;;46.80;25.48;;;;;;;;;;5072132;28;20028;-57
2020/12/22 09:21:00;;;;;;;49.03;27.15;;;;;;;;;;5071834;28;20051;-55
2020/12/22 09:23:26;;;;;;;54.25;29.30;;;;;;;;;;5071706;28;20598;-56
2020/12/22 09:25:52;;;;;;;55.75;29.52;;;;;;;;;;5071965;28;20083;-56
2020/12/22 09:28:21;;;;;;;57.97;32.53;;;;;;;;;;5072078;28;20456;-56
2020/12/22 09:30:47;;;;;;;62.83;33.03;;;;;;;;;;5072006;28;20484;-55
2020/12/22 09:33:13;;;;;;;62.85;34.85;;;;;;;;;;5072148;28;20029;-55
2020/12/22 09:35:39;;;;;;;52.28;29.52;;;;;;;;;;5071709;28;20025;-55
2020/12/22 09:38:05;;;;;;;52.90;26.88;;;;;;;;;;5071602;28;20035;-55
2020/12/22 09:40:31;;;;;;;59.03;27.70;;;;;;;;;;5071711;28;20056;-55
2020/12/22 09:42:57;;;;;;;55.53;28.17;;;;;;;;;;5071518;28;20025;-55
2020/12/22 09:45:23;;;;;;;65.15;34.53;;;;;;;;;;5071576;28;20021;-55
2020/12/22 09:47:50;;;;;;;68.55;37.30;;;;;;;;;;5071643;28;20063;-55
2020/12/22 09:50:17;;;;;;;49.97;27.85;;;;;;;;;;5071871;28;20024;-56
2020/12/22 09:52:44;;;;;;;48.88;29.33;;;;;;;;;;5071111;28;20033;-56
2020/12/22 09:55:10;;;;;;;48.65;26.48;;;;;;;;;;5068479;28;20449;-56
2020/12/22 09:57:36;;;;;;;45.03;24.50;;;;;;;;;;5061523;28;20108;-55
2020/12/22 10:00:03;;;;;;;43.30;24.45;;;;;;;;;;5071386;28;20041;-55
2020/12/22 10:02:29;;;;;;;45.78;26.13;;;;;;;;;;5072192;28;20036;-55
2020/12/22 10:04:55;;;;;;;46.72;26.40;;;;;;;;;;5071692;28;20028;-55
2020/12/22 10:07:21;;;;;;;46.63;26.00;;;;;;;;;;5071336;28;20027;-55
2020/12/22 10:09:47;;;;;;;55.25;29.25;;;;;;;;;;5071548;28;20233;-55
2020/12/22 10:12:13;;;;;;;62.30;35.63;;;;;;;;;;5074946;28;20488;-55
2020/12/22 10:14:39;;;;;;;52.53;30.23;;;;;;;;;;5075142;28;20028;-55
2020/12/22 10:17:06;;;;;;;54.22;29.90;;;;;;;;;;5074974;28;20107;-55
2020/12/22 10:19:32;;;;;;;56.45;30.63;;;;;;;;;;5075005;28;20048;-55
2020/12/22 10:21:58;;;;;;;55.42;31.13;;;;;;;;;;5074688;28;20097;-55
2020/12/22 10:24:24;;;;;;;63.30;34.63;;;;;;;;;;5074563;28;20500;-55
2020/12/22 10:26:50;;;;;;;48.85;28.88;;;;;;;;;;5074959;28;20115;-55
2020/12/22 10:29:17;;;;;;;54.67;30.77;;;;;;;;;;5074724;28;20095;-56
2020/12/22 10:31:43;;;;;;;55.28;31.70;;;;;;;;;;5074693;28;20064;-55
2020/12/22 10:34:09;;;;;;;54.40;30.30;;;;;;;;;;5074504;28;20040;-55
2020/12/22 10:36:35;;;;;;;52.05;29.65;;;;;;;;;;5074471;28;20036;-55
2020/12/22 10:39:01;;;;;;;62.95;34.20;;;;;;;;;;5074369;28;20028;-56
2020/12/22 10:41:27;;;;;;;47.50;28.13;;;;;;;;;;5074591;28;20036;-55
2020/12/22 10:43:53;;;;;;;52.75;27.67;;;;;;;;;;5074477;28;20073;-55
2020/12/22 10:46:19;;;;;;;54.60;30.17;;;;;;;;;;5074606;28;20025;-56
2020/12/22 10:48:45;;;;;;;68.07;38.60;;;;;;;;;;5074531;28;20093;-56
2020/12/22 10:51:12;;;;;;;60.80;33.17;;;;;;;;;;5074496;28;20029;-56
2020/12/22 10:53:38;;;;;;;52.78;31.08;;;;;;;;;;5074272;28;20060;-56
2020/12/22 10:56:09;;;;;;;60.38;34.83;;;;;;;;;;5063342;28;20024;-55
2020/12/22 10:58:35;;;;;;;55.35;32.15;;;;;;;;;;5072200;28;20050;-56
2020/12/22 11:01:02;;;;;;;50.92;28.98;;;;;;;;;;5074047;28;20112;-56
2020/12/22 11:03:28;;;;;;;67.30;36.10;;;;;;;;;;5073831;28;20016;-55
2020/12/22 11:08:40;;;;;;;56.53;30.55;;;;;;;;;;5074331;28;20021;-55
2020/12/22 11:11:07;;;;;;;56.47;31.33;;;;;;;;;;5074267;28;20024;-56
2020/12/22 11:13:34;;;;;;;54.40;31.73;;;;;;;;;;5074118;28;20017;-56
2020/12/22 11:16:00;;;;;;;52.60;30.88;;;;;;;;;;5074219;28;20025;-55
2020/12/22 11:18:26;;;;;;;50.88;28.85;;;;;;;;;;5074048;28;20052;-56
2020/12/22 11:20:52;;;;;;;55.25;30.38;;;;;;;;;;5073741;28;20028;-55
2020/12/22 11:23:19;;;;;;;55.45;32.83;;;;;;;;;;5072940;28;20033;-55
2020/12/22 11:25:45;;;;;;;49.40;28.30;;;;;;;;;;5073756;28;20107;-56
2020/12/22 11:28:11;;;;;;;48.78;27.85;;;;;;;;;;5066764;28;20033;-54
2020/12/22 11:30:37;;;;;;;49.05;28.80;;;;;;;;;;5068879;28;20024;-56
2020/12/22 11:33:04;;;;;;;48.67;28.60;;;;;;;;;;5073702;28;20017;-55
2020/12/22 11:35:30;;;;;;;48.70;28.10;;;;;;;;;;5073524;28;20043;-57
2020/12/22 11:37:56;;;;;;;48.97;27.55;;;;;;;;;;5073549;28;20024;-55
2020/12/22 11:40:22;;;;;;;45.38;26.27;;;;;;;;;;5073466;28;20035;-55
2020/12/22 11:42:48;;;;;;;64.13;32.88;;;;;;;;;;5073493;28;20429;-56
2020/12/22 11:45:14;;;;;;;100.15;48.78;;;;;;;;;;5062943;28;20108;-55
2020/12/22 11:47:40;;;;;;;150.48;66.90;;;;;;;;;;5067442;28;20059;-53
2020/12/22 11:50:06;;;;;;;112.93;52.97;;;;;;;;;;5060774;28;20103;-56
2020/12/22 11:52:32;;;;;;;94.93;46.92;;;;;;;;;;5073261;28;20017;-55
2020/12/22 11:54:59;;;;;;;101.22;48.55;;;;;;;;;;5069528;28;20020;-54
2020/12/22 11:57:25;;;;;;;86.53;43.20;;;;;;;;;;5061430;28;20033;-61
2020/12/22 11:59:51;;;;;;;83.90;40.85;;;;;;;;;;5072774;28;20032;-56
2020/12/22 12:02:17;;;;;;;77.70;40.00;;;;;;;;;;5073233;28;20032;-55
2020/12/22 12:04:43;;;;;;;78.45;39.72;;;;;;;;;;5073096;28;20095;-56
2020/12/22 12:07:11;;;;;;;77.50;41.95;;;;;;;;;;5072507;28;20465;-55
2020/12/22 12:09:37;;;;;;;131.82;63.47;;;;;;;;;;5072940;28;20525;-55
2020/12/22 12:12:03;;;;;;;121.43;62.83;;;;;;;;;;5072848;28;20024;-56
2020/12/22 12:14:29;;;;;;;121.63;68.00;;;;;;;;;;5072912;28;20021;-58
2020/12/22 12:16:55;;;;;;;161.43;87.50;;;;;;;;;;5072843;28;20040;-55
2020/12/22 12:19:21;;;;;;;91.00;48.33;;;;;;;;;;5072760;28;20027;-55
2020/12/22 12:21:47;;;;;;;69.38;38.03;;;;;;;;;;5072564;28;20084;-56
2020/12/22 12:24:13;;;;;;;65.93;36.78;;;;;;;;;;5072135;28;20068;-55
2020/12/22 12:26:39;;;;;;;62.38;35.38;;;;;;;;;;5072406;28;20033;-54
2020/12/22 12:29:06;;;;;;;68.75;39.13;;;;;;;;;;5059890;28;20024;-54
2020/12/22 12:31:32;;;;;;;67.05;39.13;;;;;;;;;;5054152;28;20056;-55
2020/12/22 12:33:59;;;;;;;68.00;38.50;;;;;;;;;;5054143;28;20567;-55
2020/12/22 12:36:25;;;;;;;61.35;36.00;;;;;;;;;;5072311;28;20034;-55
2020/12/22 12:38:51;;;;;;;57.78;33.58;;;;;;;;;;5072484;28;20099;-56
2020/12/22 12:41:17;;;;;;;66.10;35.05;;;;;;;;;;5071813;28;20032;-55
2020/12/22 12:43:43;;;;;;;65.88;35.05;;;;;;;;;;5066934;28;20549;-55
2020/12/22 12:46:09;;;;;;;65.18;36.78;;;;;;;;;;5071926;28;20032;-55
2020/12/22 12:48:36;;;;;;;61.03;35.10;;;;;;;;;;5071979;28;20021;-56
2020/12/22 12:51:03;;;;;;;61.22;35.78;;;;;;;;;;5071726;28;20023;-55
2020/12/22 12:53:29;;;;;;;67.72;39.35;;;;;;;;;;5070919;28;20020;-56
2020/12/22 12:55:55;;;;;;;68.68;40.17;;;;;;;;;;5071909;28;20043;-56
2020/12/22 12:58:21;;;;;;;61.53;36.08;;;;;;;;;;5071985;28;20034;-56
2020/12/22 13:00:47;;;;;;;75.45;47.53;;;;;;;;;;5071911;28;20133;-55
2020/12/22 13:03:13;;;;;;;64.10;38.75;;;;;;;;;;5072086;28;20105;-53
2020/12/22 13:05:40;;;;;;;89.10;55.55;;;;;;;;;;5071857;28;20021;-55
2020/12/22 13:08:06;;;;;;;67.93;40.25;;;;;;;;;;5072170;28;20099;-55
2020/12/22 13:10:32;;;;;;;78.82;49.50;;;;;;;;;;5071757;28;20459;-56
2020/12/22 13:12:58;;;;;;;69.32;43.85;;;;;;;;;;5071704;28;20020;-55
2020/12/22 13:15:24;;;;;;;74.07;45.08;;;;;;;;;;5071351;28;20036;-55
2020/12/22 13:17:50;;;;;;;69.97;43.00;;;;;;;;;;5071248;28;20024;-56
2020/12/22 13:20:16;;;;;;;68.40;42.92;;;;;;;;;;5071757;28;20059;-55
2020/12/22 13:22:42;;;;;;;67.82;41.38;;;;;;;;;;5071437;28;20499;-56
2020/12/22 13:25:08;;;;;;;90.72;60.40;;;;;;;;;;5071406;28;20083;-55
2020/12/22 13:27:34;;;;;;;68.18;44.33;;;;;;;;;;5071647;28;20046;-56
2020/12/22 13:30:00;;;;;;;73.45;46.78;;;;;;;;;;5071799;28;20024;-55
2020/12/22 13:32:26;;;;;;;87.15;54.83;;;;;;;;;;5071653;28;20086;-56
2020/12/22 13:34:52;;;;;;;66.00;44.33;;;;;;;;;;5071193;28;20028;-56
2020/12/22 13:37:19;;;;;;;84.65;54.03;;;;;;;;;;5070504;28;20029;-54
2020/12/22 13:39:45;;;;;;;62.83;40.65;;;;;;;;;;5070404;28;20036;-55
2020/12/22 13:42:11;;;;;;;83.70;54.88;;;;;;;;;;5053008;28;20051;-56
2020/12/22 13:44:37;;;;;;;88.93;58.60;;;;;;;;;;5071013;28;20199;-56
2020/12/22 13:47:04;;;;;;;72.72;48.05;;;;;;;;;;5074600;28;20491;-56
2020/12/22 13:49:30;;;;;;;70.18;45.55;;;;;;;;;;5074858;28;20391;-56
2020/12/22 13:51:56;;;;;;;156.88;104.68;;;;;;;;;;5074912;28;20126;-54
2020/12/22 13:54:22;;;;;;;111.35;72.18;;;;;;;;;;5074319;28;20021;-55
2020/12/22 13:56:48;;;;;;;103.47;66.20;;;;;;;;;;5074868;28;20043;-53
2020/12/22 13:59:14;;;;;;;69.90;44.70;;;;;;;;;;5057052;28;20048;-56
2020/12/22 14:01:40;;;;;;;62.97;41.22;;;;;;;;;;5074485;28;20036;-55
2020/12/22 14:04:06;;;;;;;59.30;37.95;;;;;;;;;;5074864;28;20016;-55
2020/12/22 14:06:32;;;;;;;68.82;42.65;;;;;;;;;;5074867;28;20042;-56
2020/12/22 14:08:58;;;;;;;71.90;42.42;;;;;;;;;;5074375;28;20013;-55
2020/12/22 14:11:26;;;;;;;77.25;44.65;;;;;;;;;;5074449;28;20032;-56
2020/12/22 14:13:52;;;;;;;67.47;41.67;;;;;;;;;;5072090;28;20024;-55
2020/12/22 14:16:19;;;;;;;130.05;72.63;;;;;;;;;;5068523;28;20025;-56